Time;durP1;ratioP1;P1;durP2;ratioP2;P2;SDS_P1;SDS_P2;PMS_P1;PMS_P2;Temp;Humidity;BMP_temperature;BMP_pressure;BME280_temperature;BME280_humidity;BME280_pressure;Samples;Min_cycle;Max_cycle;Signal;HPM_P1;HPM_P2
2021/08/25 00:02:18;;;;;;;13.60;5.95;;;;;;;14.13;60.73;99937.97;4836029;29;20052;-84
2021/08/25 00:04:44;;;;;;;24.35;7.32;;;;;;;13.96;63.25;99897.50;4840164;29;20453;-86
2021/08/25 00:07:13;;;;;;;24.27;7.20;;;;;;;14.10;62.71;99928.41;4840102;29;20053;-92
2021/08/25 00:09:41;;;;;;;27.33;7.15;;;;;;;14.15;61.73;99935.72;4839956;29;20133;-84
2021/08/25 00:12:09;;;;;;;24.40;7.60;;;;;;;14.15;62.41;99935.72;4840828;29;20076;-84
2021/08/25 00:14:39;;;;;;;33.28;6.85;;;;;;;14.09;62.81;99926.81;4837690;29;20136;-84
2021/08/25 00:17:08;;;;;;;25.17;7.47;;;;;;;14.09;62.96;99926.81;4841308;29;20046;-83
2021/08/25 00:19:34;;;;;;;23.25;6.75;;;;;;;14.05;63.32;99928.59;4841191;29;20042;-85
2021/08/25 00:22:00;;;;;;;23.67;7.97;;;;;;;13.97;64.77;99927.44;4841450;29;20053;-83
2021/08/25 00:24:26;;;;;;;26.90;7.18;;;;;;;13.92;63.96;99919.34;4839738;29;20046;-85
2021/08/25 00:26:52;;;;;;;23.65;7.07;;;;;;;13.96;64.26;99928.56;4841966;29;20098;-86
2021/08/25 00:29:18;;;;;;;47.90;8.40;;;;;;;13.97;64.16;99926.63;4841167;29;20535;-84
2021/08/25 00:31:46;;;;;;;68.80;9.50;;;;;;;13.88;64.19;99923.88;4841146;29;20084;-83
2021/08/25 00:34:13;;;;;;;20.58;7.30;;;;;;;13.83;63.71;99930.31;4840639;29;20107;-84
2021/08/25 00:36:39;;;;;;;31.70;8.07;;;;;;;13.79;63.47;99929.31;4841287;29;20075;-91
2021/08/25 00:39:05;;;;;;;20.10;7.57;;;;;;;13.72;63.58;99928.19;4839871;29;20065;-85
2021/08/25 00:41:33;;;;;;;14.52;6.85;;;;;;;13.66;63.28;99932.19;4824929;29;20049;-84
2021/08/25 00:43:59;;;;;;;16.27;7.18;;;;;;;13.61;63.46;99928.47;4839568;29;20038;-83
2021/08/25 00:46:28;;;;;;;14.30;6.90;;;;;;;13.50;63.43;99924.38;4840378;29;20046;-93
2021/08/25 00:48:57;;;;;;;19.40;6.32;;;;;;;13.42;62.89;99932.59;4842187;29;20122;-94
2021/08/25 00:51:24;;;;;;;19.13;6.90;;;;;;;13.37;62.74;99919.81;4841293;29;20049;-85
2021/08/25 00:53:51;;;;;;;25.33;7.00;;;;;;;13.22;62.89;99910.03;4841269;29;20049;-85
2021/08/25 00:56:19;;;;;;;15.40;6.10;;;;;;;13.30;62.63;99924.94;4841211;29;20499;-91
2021/08/25 00:58:45;;;;;;;17.40;7.03;;;;;;;13.40;62.78;99933.72;4841274;29;20137;-93
2021/08/25 01:01:18;;;;;;;16.52;7.15;;;;;;;13.38;62.91;99925.00;4841245;29;20045;-89
2021/08/25 01:03:48;;;;;;;22.05;7.70;;;;;;;13.36;62.84;99924.50;4841530;29;20049;-85
2021/08/25 01:06:20;;;;;;;29.05;7.03;;;;;;;13.30;63.40;99917.50;4841605;29;20048;-84
2021/08/25 01:08:46;;;;;;;24.27;7.88;;;;;;;13.14;63.31;99905.28;4840621;29;20085;-84
2021/08/25 01:11:12;;;;;;;23.42;7.53;;;;;;;13.23;63.49;99928.13;4840945;29;20045;-84
2021/08/25 01:13:40;;;;;;;15.85;7.50;;;;;;;13.25;63.29;99917.66;4840551;29;20551;-84
2021/08/25 01:16:07;;;;;;;23.40;7.68;;;;;;;13.27;63.04;99923.63;4840945;29;20141;-85
2021/08/25 01:18:34;;;;;;;18.77;7.18;;;;;;;13.19;63.18;99904.38;4844149;29;20060;-84
2021/08/25 01:21:01;;;;;;;23.80;8.18;;;;;;;13.19;62.70;99907.91;4843126;29;20428;-84
2021/08/25 01:23:29;;;;;;;32.17;8.80;;;;;;;13.18;62.85;99906.31;4842825;29;20054;-85
2021/08/25 01:26:02;;;;;;;16.58;7.38;;;;;;;13.28;62.41;99919.78;4843582;29;20042;-84
2021/08/25 01:28:35;;;;;;;16.98;8.05;;;;;;;13.33;62.47;99927.88;4842075;29;20121;-94
2021/08/25 01:31:02;;;;;;;17.17;8.57;;;;;;;13.34;62.64;99923.19;4842907;29;20049;-85
2021/08/25 01:33:30;;;;;;;20.15;7.57;;;;;;;13.36;62.31;99918.19;4842868;29;20049;-84
2021/08/25 01:35:57;;;;;;;17.83;7.97;;;;;;;13.39;62.97;99920.31;4849502;29;20049;-83
2021/08/25 01:38:47;;;;;;;23.05;8.63;;;;;;;13.33;62.88;99905.91;4843930;29;20041;-84
2021/08/25 01:41:20;;;;;;;72.25;10.85;;;;;;;13.39;62.67;99901.88;4838932;29;20082;-84
2021/08/25 01:43:46;;;;;;;35.13;8.13;;;;;;;13.57;62.75;99918.44;4843496;29;20125;-83
2021/08/25 01:46:28;;;;;;;26.50;8.68;;;;;;;13.60;62.40;99909.53;4857797;29;20500;-88
2021/08/25 01:48:55;;;;;;;28.05;8.60;;;;;;;13.61;62.09;99917.50;4842642;29;20531;-85
2021/08/25 01:51:23;;;;;;;43.75;9.48;;;;;;;13.58;62.44;99904.38;4843656;29;20042;-85
2021/08/25 01:53:50;;;;;;;34.45;8.93;;;;;;;13.54;61.91;99914.41;4843126;29;20054;-83
2021/08/25 01:56:16;;;;;;;22.05;8.13;;;;;;;13.43;62.17;99921.28;4843218;29;20136;-89
2021/08/25 01:58:43;;;;;;;24.23;8.48;;;;;;;13.36;61.67;99924.50;4842280;29;20045;-95
2021/08/25 02:01:09;;;;;;;20.50;8.18;;;;;;;13.24;61.76;99913.28;4842257;29;20516;-84
2021/08/25 02:03:37;;;;;;;19.35;8.55;;;;;;;13.21;61.99;99904.84;4841984;29;20109;-85
2021/08/25 02:06:04;;;;;;;29.40;8.90;;;;;;;13.29;61.79;99926.88;4842024;29;20548;-84
2021/08/25 02:08:30;;;;;;;53.93;9.97;;;;;;;13.26;61.58;99929.47;4843163;29;20365;-88
2021/08/25 02:10:57;;;;;;;74.10;10.63;;;;;;;13.23;62.50;99917.13;4843593;29;20487;-84
2021/08/25 02:13:24;;;;;;;20.95;8.02;;;;;;;13.16;61.74;99922.28;4843727;29;20336;-83
2021/08/25 02:15:50;;;;;;;24.35;8.10;;;;;;;13.18;62.00;99920.03;4843060;29;20049;-84
2021/08/25 02:18:16;;;;;;;37.30;8.40;;;;;;;13.15;61.43;99928.91;4842691;29;20065;-84
2021/08/25 02:20:43;;;;;;;16.20;6.85;;;;;;;13.09;61.58;99919.97;4843670;29;20529;-93
2021/08/25 02:23:11;;;;;;;17.92;7.55;;;;;;;13.12;62.06;99921.28;4843248;29;20049;-84
2021/08/25 02:25:36;;;;;;;18.60;7.30;;;;;;;13.03;61.11;99907.50;4842706;29;20612;-84
2021/08/25 02:28:04;;;;;;;17.38;8.32;;;;;;;13.12;62.01;99910.31;4842850;29;20077;-84
2021/08/25 02:30:30;;;;;;;14.63;6.90;;;;;;;13.07;61.39;99913.16;4843348;29;20405;-85
2021/08/25 02:32:59;;;;;;;25.13;7.75;;;;;;;12.90;61.96;99895.47;4842973;29;20045;-84
2021/08/25 02:35:25;;;;;;;22.45;6.95;;;;;;;13.08;60.62;99920.31;4844563;29;20053;-84
2021/08/25 02:37:51;;;;;;;19.90;7.32;;;;;;;13.10;60.80;99915.28;4846833;29;20547;-84
2021/08/25 02:40:17;;;;;;;25.98;7.95;;;;;;;12.83;60.97;99875.09;4842527;29;20057;-84
2021/08/25 02:42:44;;;;;;;16.15;6.55;;;;;;;13.06;60.88;99917.84;4841334;29;20053;-84
2021/08/25 02:45:10;;;;;;;26.83;7.97;;;;;;;12.91;60.98;99897.13;4841587;29;20041;-83
2021/08/25 02:47:37;;;;;;;21.83;7.35;;;;;;;12.96;61.61;99918.13;4842565;29;20045;-84
2021/08/25 02:50:04;;;;;;;24.00;8.77;;;;;;;12.86;61.93;99913.69;4842637;29;20050;-86
2021/08/25 02:52:31;;;;;;;21.45;7.88;;;;;;;12.73;62.37;99900.88;4842472;29;20048;-84
2021/08/25 02:54:57;;;;;;;18.50;7.32;;;;;;;12.74;62.45;99912.66;4842140;29;20416;-85
2021/08/25 02:57:23;;;;;;;23.27;8.02;;;;;;;12.63;61.97;99904.69;4842497;29;20473;-84
2021/08/25 02:59:49;;;;;;;16.17;7.13;;;;;;;12.65;61.26;99923.59;4842256;29;20113;-85
2021/08/25 03:02:15;;;;;;;18.33;6.93;;;;;;;12.57;60.80;99916.88;4842459;29;20048;-85
2021/08/25 03:04:43;;;;;;;28.75;7.13;;;;;;;12.62;60.52;99922.25;4841370;29;20092;-93
2021/08/25 03:07:09;;;;;;;19.80;7.25;;;;;;;12.57;60.37;99925.13;4842742;29;20046;-93
2021/08/25 03:09:34;;;;;;;16.92;7.25;;;;;;;12.58;60.18;99921.28;4842100;29;20044;-94
2021/08/25 03:12:02;;;;;;;17.88;7.00;;;;;;;12.57;59.89;99922.38;4841257;29;20057;-85
2021/08/25 03:14:29;;;;;;;13.32;7.00;;;;;;;12.55;59.73;99926.53;4842179;29;20072;-84
2021/08/25 03:16:56;;;;;;;19.58;7.03;;;;;;;12.49;60.22;99919.59;4842399;29;20574;-84
2021/08/25 03:19:22;;;;;;;18.70;7.13;;;;;;;12.53;59.77;99926.88;4825918;29;20077;-85
2021/08/25 03:21:49;;;;;;;20.17;7.40;;;;;;;12.54;60.07;99925.75;4842401;29;20076;-85
2021/08/25 03:24:16;;;;;;;21.77;7.75;;;;;;;12.45;59.78;99919.41;4842206;29;20090;-83
2021/08/25 03:26:42;;;;;;;23.90;6.90;;;;;;;12.47;60.57;99925.38;4842277;29;20071;-89
2021/08/25 03:29:08;;;;;;;31.05;7.80;;;;;;;12.52;60.60;99929.94;4842240;29;20038;-84
2021/08/25 03:31:34;;;;;;;23.52;8.15;;;;;;;12.51;61.02;99925.56;4841956;29;20042;-85
2021/08/25 03:34:00;;;;;;;17.65;7.25;;;;;;;12.49;60.97;99930.56;4855625;29;20117;-84
2021/08/25 03:36:26;;;;;;;22.50;7.38;;;;;;;12.49;61.35;99928.63;4851275;29;20136;-84
2021/08/25 03:38:52;;;;;;;23.65;8.13;;;;;;;12.35;61.62;99909.47;4848555;29;20109;-92
2021/08/25 03:41:19;;;;;;;19.73;7.45;;;;;;;12.51;61.05;99933.78;4839746;29;20060;-84
2021/08/25 03:43:45;;;;;;;19.35;7.75;;;;;;;12.52;60.83;99913.47;4840558;29;20054;-84
2021/08/25 03:46:15;;;;;;;35.03;7.80;;;;;;;12.55;60.57;99923.81;4841480;29;20042;-93
2021/08/25 03:48:41;;;;;;;26.42;7.75;;;;;;;12.58;60.12;99923.19;4841308;29;20084;-92
2021/08/25 03:51:08;;;;;;;16.80;6.75;;;;;;;12.51;59.51;99909.91;4830130;29;20056;-84
2021/08/25 03:53:34;;;;;;;26.45;8.35;;;;;;;12.64;59.91;99914.53;4841206;29;20050;-85
2021/08/25 03:55:59;;;;;;;20.17;7.47;;;;;;;12.72;59.78;99921.22;4841592;29;20042;-85
2021/08/25 03:58:25;;;;;;;41.55;8.48;;;;;;;12.78;59.90;99919.97;4841518;29;20046;-87
2021/08/25 04:00:53;;;;;;;18.20;7.72;;;;;;;12.83;59.56;99917.06;4839898;29;20052;-83
2021/08/25 04:03:19;;;;;;;20.70;7.30;;;;;;;12.81;59.70;99904.78;4841032;29;20535;-84
2021/08/25 04:05:46;;;;;;;27.98;7.85;;;;;;;12.92;59.79;99917.94;4841088;29;20046;-84
2021/08/25 04:08:12;;;;;;;20.42;7.93;;;;;;;12.93;59.85;99916.81;4840958;29;20049;-91
2021/08/25 04:10:41;;;;;;;18.40;7.30;;;;;;;12.94;59.50;99907.44;4841386;29;20045;-84
2021/08/25 04:13:07;;;;;;;21.42;7.63;;;;;;;12.93;59.60;99900.34;4840870;29;20170;-83
2021/08/25 04:15:34;;;;;;;20.88;7.88;;;;;;;13.13;59.32;99914.66;4840121;29;20488;-83
2021/08/25 04:18:00;;;;;;;21.63;7.90;;;;;;;13.19;59.32;99916.16;4841373;29;20050;-84
2021/08/25 04:20:26;;;;;;;39.30;8.90;;;;;;;13.20;59.47;99926.00;4840952;29;20106;-84
2021/08/25 04:22:52;;;;;;;26.13;9.02;;;;;;;13.24;59.79;99916.03;4840151;29;20046;-83
2021/08/25 04:25:18;;;;;;;21.58;8.38;;;;;;;13.17;59.62;99890.94;4841078;29;20053;-92
2021/08/25 04:27:44;;;;;;;25.90;9.65;;;;;;;13.43;59.52;99915.00;4839998;29;20393;-83
2021/08/25 04:30:11;;;;;;;55.03;10.38;;;;;;;13.43;59.84;99907.56;4841123;29;20110;-84
2021/08/25 04:32:37;;;;;;;32.47;9.57;;;;;;;13.44;60.21;99903.69;4841752;29;20058;-82
2021/08/25 04:35:05;;;;;;;27.03;9.37;;;;;;;13.44;60.02;99900.13;4836335;29;20050;-82
2021/08/25 04:37:32;;;;;;;22.48;11.13;;;;;;;13.48;60.15;99903.88;4826783;29;20295;-82
2021/08/25 04:39:59;;;;;;;28.97;10.03;;;;;;;13.61;60.52;99902.94;4837968;29;20423;-94
2021/08/25 04:42:25;;;;;;;30.25;10.88;;;;;;;13.62;59.45;99891.63;4841478;29;20301;-83
2021/08/25 04:44:51;;;;;;;31.93;9.50;;;;;;;13.74;59.42;99899.28;4840093;29;20038;-85
2021/08/25 04:47:17;;;;;;;95.53;12.15;;;;;;;13.85;59.33;99906.06;4841631;29;20037;-83
2021/08/25 04:49:44;;;;;;;54.90;10.35;;;;;;;13.94;57.34;99899.75;4841445;29;20098;-91
2021/08/25 04:52:09;;;;;;;26.30;9.48;;;;;;;13.94;54.79;99884.09;4845031;29;20042;-92
2021/08/25 04:54:36;;;;;;;20.77;9.75;;;;;;;13.98;53.47;99895.25;4845436;29;20452;-85
2021/08/25 04:57:02;;;;;;;23.45;9.18;;;;;;;14.01;53.27;99894.63;4844650;29;20416;-83
2021/08/25 04:59:30;;;;;;;60.75;10.55;;;;;;;14.13;53.71;99903.03;4842932;29;20042;-85
2021/08/25 05:01:56;;;;;;;38.97;8.48;;;;;;;14.18;52.26;99897.38;4840209;29;20061;-83
2021/08/25 05:04:22;;;;;;;41.05;10.40;;;;;;;14.09;53.08;99874.56;4825948;29;20508;-84
2021/08/25 05:06:48;;;;;;;68.20;10.23;;;;;;;14.23;52.90;99891.69;4837500;29;20050;-89
2021/08/25 05:09:13;;;;;;;47.63;9.55;;;;;;;14.33;52.81;99891.38;4844679;29;20182;-87
2021/08/25 05:11:39;;;;;;;42.30;7.78;;;;;;;14.38;51.48;99884.94;4842162;29;20061;-86
2021/08/25 05:14:07;;;;;;;33.28;8.13;;;;;;;14.54;51.65;99904.53;4827537;29;20057;-90
2021/08/25 05:17:03;;;;;;;21.37;7.27;;;;;;;14.27;50.16;99854.19;4844688;29;20049;-93
2021/08/25 05:19:37;;;;;;;28.00;8.05;;;;;;;14.14;50.81;99826.84;4778694;30;20433;-95
2021/08/25 05:22:10;;;;;;;25.85;7.93;;;;;;;14.21;50.36;99822.50;4761083;30;20147;-93
2021/08/25 05:24:39;;;;;;;175.65;13.70;;;;;;;14.54;49.44;99874.28;4787968;30;20047;-88
2021/08/25 05:27:06;;;;;;;67.45;8.70;;;;;;;14.55;49.24;99873.13;4787744;30;20055;-89
2021/08/25 05:29:35;;;;;;;44.50;8.10;;;;;;;14.75;49.83;99883.44;4772565;30;20047;-83
2021/08/25 05:32:01;;;;;;;;;;;;;;;14.80;49.38;99882.47;4787635;30;20437;-80
2021/08/25 05:34:28;;;;;;;28.02;8.23;;;;;;;14.98;48.92;99891.50;4787330;30;19983;-83
2021/08/25 05:36:54;;;;;;;33.30;8.15;;;;;;;14.66;49.75;99855.13;4799759;29;20063;-85
2021/08/25 05:39:20;;;;;;;34.67;8.27;;;;;;;14.87;49.53;99895.75;4804786;29;20054;-86
2021/08/25 05:41:46;;;;;;;68.35;10.02;;;;;;;14.78;50.73;99887.50;4805269;29;20084;-84
2021/08/25 05:44:12;;;;;;;56.00;9.93;;;;;;;14.70;50.28;99866.28;4797583;29;20051;-88
2021/08/25 05:46:38;;;;;;;40.40;9.48;;;;;;;14.82;49.59;99879.41;4786070;30;20549;-88
2021/08/25 05:49:03;;;;;;;56.75;10.82;;;;;;;14.87;49.44;99876.47;4739503;30;20062;-82
2021/08/25 05:51:29;;;;;;;27.75;8.57;;;;;;;14.88;50.52;99878.09;4769292;30;20174;-89
2021/08/25 05:53:56;;;;;;;70.38;8.93;;;;;;;14.92;49.04;99865.28;4769628;30;20044;-85
2021/08/25 05:56:22;;;;;;;22.63;6.80;;;;;;;15.11;48.25;99879.47;4792574;29;20058;-90
2021/08/25 05:58:49;;;;;;;28.65;6.97;;;;;;;15.12;48.81;99864.56;4844259;29;20040;-89
2021/08/25 06:01:16;;;;;;;31.35;6.80;;;;;;;15.30;50.02;99879.09;4840491;29;20490;-87
2021/08/25 06:03:42;;;;;;;20.92;7.43;;;;;;;15.34;49.41;99865.44;4841935;29;20132;-88
2021/08/25 06:06:11;;;;;;;19.75;6.90;;;;;;;15.38;49.04;99863.63;4842834;29;20050;-92
2021/08/25 06:08:39;;;;;;;17.17;7.53;;;;;;;15.54;49.42;99874.91;4826703;29;20050;-90
2021/08/25 06:11:05;;;;;;;21.27;7.13;;;;;;;15.60;49.34;99879.91;4826631;29;20225;-86
2021/08/25 06:13:33;;;;;;;20.75;6.82;;;;;;;15.71;49.04;99883.09;4842810;29;20046;-89
2021/08/25 06:15:59;;;;;;;18.30;7.45;;;;;;;15.82;48.62;99884.31;4843360;29;20102;-87
2021/08/25 06:18:25;;;;;;;19.63;7.28;;;;;;;15.87;48.27;99878.63;4843343;29;20037;-88
2021/08/25 06:20:51;;;;;;;29.45;7.10;;;;;;;15.93;46.94;99879.25;4842966;29;20118;-88
2021/08/25 06:23:19;;;;;;;17.45;7.20;;;;;;;15.91;48.20;99864.97;4856954;29;20071;-87
2021/08/25 06:25:45;;;;;;;29.73;7.45;;;;;;;15.86;47.86;99860.47;4841794;29;20065;-89
2021/08/25 06:28:12;;;;;;;16.60;7.18;;;;;;;15.90;47.82;99860.63;4844389;29;20134;-87
2021/08/25 06:30:38;;;;;;;55.88;8.52;;;;;;;15.95;46.96;99858.44;4859238;29;20478;-88
2021/08/25 06:33:03;;;;;;;18.65;6.35;;;;;;;15.95;47.80;99847.41;4839630;29;20488;-87
2021/08/25 06:35:29;;;;;;;28.05;6.72;;;;;;;15.97;48.41;99839.63;4845230;29;20030;-87
2021/08/25 06:37:56;;;;;;;22.55;6.50;;;;;;;16.19;48.02;99855.03;4851521;29;20077;-87
2021/08/25 06:40:22;;;;;;;16.15;5.68;;;;;;;16.24;45.83;99853.22;4842393;29;20127;-86
2021/08/25 06:42:48;;;;;;;77.90;9.63;;;;;;;16.18;46.14;99845.13;4826056;29;20038;-86
2021/08/25 06:45:13;;;;;;;15.52;5.75;;;;;;;16.19;45.83;99854.19;4844007;29;20146;-87
2021/08/25 06:47:42;;;;;;;27.67;6.82;;;;;;;16.14;46.49;99848.91;4855721;29;20547;-85
2021/08/25 06:50:08;;;;;;;22.85;6.50;;;;;;;16.27;46.25;99856.09;4842788;29;20124;-87
2021/08/25 06:52:34;;;;;;;83.35;9.38;;;;;;;16.27;47.77;99852.53;4842704;29;20129;-90
2021/08/25 06:55:00;;;;;;;32.50;7.10;;;;;;;16.30;47.32;99846.34;4842873;29;20053;-88
2021/08/25 06:57:28;;;;;;;27.38;6.72;;;;;;;16.43;47.85;99850.78;4841975;29;20045;-88
2021/08/25 06:59:53;;;;;;;18.65;7.05;;;;;;;16.41;46.98;99836.50;4842646;29;20432;-89
2021/08/25 07:02:19;;;;;;;17.20;6.55;;;;;;;16.54;47.08;99837.34;4837984;29;20042;-89
2021/08/25 07:04:46;;;;;;;33.40;6.82;;;;;;;16.62;45.85;99853.84;4823949;29;20593;-88
2021/08/25 07:07:13;;;;;;;28.92;7.15;;;;;;;16.49;46.29;99826.50;4854585;29;20041;-87
2021/08/25 07:09:40;;;;;;;16.60;5.95;;;;;;;16.73;47.52;99858.91;4842138;29;20136;-90
2021/08/25 07:12:06;;;;;;;23.92;7.82;;;;;;;16.77;46.62;99857.13;4842201;29;20057;-89
2021/08/25 07:14:32;;;;;;;36.90;8.23;;;;;;;16.79;48.13;99854.84;4841325;29;20432;-87
2021/08/25 07:16:59;;;;;;;36.53;6.47;;;;;;;16.90;48.06;99833.91;4841751;29;20046;-85
2021/08/25 07:19:25;;;;;;;15.18;5.65;;;;;;;17.14;45.83;99861.56;4847651;29;20065;-89
2021/08/25 07:21:51;;;;;;;19.20;5.97;;;;;;;17.04;43.96;99845.41;4834475;29;20038;-88
2021/08/25 07:24:17;;;;;;;54.58;6.40;;;;;;;17.22;45.19;99859.03;4841566;29;20522;-86
2021/08/25 07:26:45;;;;;;;20.27;5.78;;;;;;;17.25;42.55;99842.59;4855753;29;20517;-87
2021/08/25 07:29:11;;;;;;;17.52;6.57;;;;;;;17.28;44.40;99850.16;4825494;29;20049;-90
2021/08/25 07:31:37;;;;;;;22.08;6.53;;;;;;;17.00;42.94;99835.41;4840886;29;20141;-88
2021/08/25 07:34:04;;;;;;;15.82;6.25;;;;;;;16.89;43.00;99846.09;4841656;29;20098;-88
2021/08/25 07:36:30;;;;;;;25.75;7.10;;;;;;;16.84;43.52;99843.56;4843509;29;20046;-89
2021/08/25 07:38:56;;;;;;;23.27;7.07;;;;;;;17.03;45.70;99859.59;4844883;29;20129;-87
2021/08/25 07:41:23;;;;;;;20.98;6.38;;;;;;;17.00;44.82;99838.97;4859685;29;20054;-89
2021/08/25 07:43:49;;;;;;;30.67;7.60;;;;;;;17.27;44.48;99858.81;4824431;29;20048;-87
2021/08/25 07:46:15;;;;;;;15.20;6.45;;;;;;;17.35;43.42;99853.19;4839242;29;20305;-87
2021/08/25 07:48:41;;;;;;;13.68;6.20;;;;;;;17.38;42.71;99835.06;4841724;29;20042;-88
2021/08/25 07:51:11;;;;;;;14.45;6.38;;;;;;;17.38;41.98;99840.59;4839358;29;20053;-85
2021/08/25 07:53:37;;;;;;;24.77;6.68;;;;;;;17.34;41.11;99842.44;4840051;29;20049;-87
2021/08/25 07:56:05;;;;;;;16.63;6.40;;;;;;;17.42;41.31;99847.06;4841280;29;20129;-87
2021/08/25 07:58:31;;;;;;;23.30;8.00;;;;;;;17.51;42.92;99842.22;4852078;29;20602;-89
2021/08/25 08:00:59;;;;;;;14.98;6.50;;;;;;;17.59;41.41;99849.59;4855480;29;20054;-87
2021/08/25 08:03:24;;;;;;;12.70;6.43;;;;;;;17.64;44.14;99840.25;4840191;29;20038;-88
2021/08/25 08:05:50;;;;;;;28.50;7.40;;;;;;;17.58;43.62;99801.00;4841323;29;20046;-89
2021/08/25 08:08:17;;;;;;;27.35;8.27;;;;;;;17.88;42.88;99824.78;4840465;29;20050;-91
2021/08/25 08:10:43;;;;;;;17.17;6.25;;;;;;;17.95;42.59;99820.31;4840278;29;20049;-88
2021/08/25 08:13:09;;;;;;;15.25;6.85;;;;;;;18.06;43.57;99831.66;4841736;29;20557;-90
2021/08/25 08:15:37;;;;;;;19.00;7.40;;;;;;;18.19;43.09;99836.00;4855593;29;20053;-88
2021/08/25 08:18:13;;;;;;;20.58;7.38;;;;;;;18.04;42.00;99800.78;4839515;29;20041;-88
2021/08/25 08:20:40;;;;;;;29.85;6.80;;;;;;;18.11;42.38;99825.06;4831939;29;20061;-87
2021/08/25 08:23:07;;;;;;;24.07;7.00;;;;;;;18.10;43.11;99817.94;4858952;29;20083;-89
2021/08/25 08:25:33;;;;;;;122.97;14.10;;;;;;;17.94;42.27;99781.91;4866693;29;20054;-87
2021/08/25 08:27:59;;;;;;;17.87;7.23;;;;;;;18.08;41.67;99808.03;4849973;29;20052;-87
2021/08/25 08:30:26;;;;;;;25.10;7.07;;;;;;;18.06;41.75;99810.34;4847177;29;20056;-87
2021/08/25 08:32:52;;;;;;;22.85;7.13;;;;;;;18.23;43.13;99814.78;4861931;29;20041;-86
2021/08/25 08:35:20;;;;;;;15.13;6.65;;;;;;;18.31;41.80;99816.59;4854644;29;20053;-87
2021/08/25 08:37:46;;;;;;;16.37;6.53;;;;;;;18.40;42.93;99805.34;4846037;29;20046;-87
2021/08/25 08:40:12;;;;;;;25.42;8.07;;;;;;;18.46;42.04;99797.59;4832416;29;20057;-87
2021/08/25 08:42:39;;;;;;;23.53;8.07;;;;;;;18.47;41.29;99808.31;4860918;29;20388;-88
2021/08/25 08:45:07;;;;;;;;;;;;;;;18.62;42.09;99808.72;4834869;29;20038;-86
2021/08/25 08:47:33;;;;;;;18.83;6.97;;;;;;;18.67;41.98;99805.66;4830227;29;19968;-88
2021/08/25 08:50:01;;;;;;;20.90;7.25;;;;;;;18.70;41.15;99799.41;4861191;29;20041;-88
2021/08/25 08:52:27;;;;;;;24.50;6.80;;;;;;;18.70;41.59;99800.22;4843308;29;20038;-88
2021/08/25 08:54:57;;;;;;;19.20;7.45;;;;;;;18.62;42.03;99776.28;4843932;29;20491;-86
2021/08/25 08:57:24;;;;;;;19.05;6.88;;;;;;;18.86;43.79;99799.47;4839735;29;20050;-87
2021/08/25 08:59:50;;;;;;;25.70;7.28;;;;;;;18.95;42.39;99797.34;4842914;29;20046;-89
2021/08/25 09:02:38;;;;;;;16.20;6.85;;;;;;;19.05;40.90;99813.41;4844035;29;20563;-87
2021/08/25 09:05:17;;;;;;;17.63;7.30;;;;;;;18.95;41.59;99805.66;4841256;29;20050;-87
2021/08/25 09:08:01;;;;;;;38.88;7.78;;;;;;;18.88;41.35;99803.50;4844008;29;20046;-89
2021/08/25 09:10:30;;;;;;;30.00;7.63;;;;;;;18.91;42.35;99799.22;4841703;29;20546;-86
2021/08/25 09:13:14;;;;;;;16.15;6.63;;;;;;;18.94;41.79;99798.47;4860712;29;20053;-90
2021/08/25 09:15:43;;;;;;;14.77;6.60;;;;;;;18.88;42.24;99761.16;4842198;29;20053;-88
2021/08/25 09:18:10;;;;;;;;;;;;;;;19.29;41.08;99803.31;4844614;29;20306;-89
2021/08/25 09:20:42;;;;;;;20.42;6.57;;;;;;;19.37;41.03;99805.91;4848165;29;19982;-87
2021/08/25 09:23:19;;;;;;;21.80;7.00;;;;;;;19.49;42.60;99802.19;4847967;29;20045;-87
2021/08/25 09:25:55;;;;;;;13.52;6.57;;;;;;;19.57;40.25;99781.78;4853455;29;20416;-96
2021/08/25 09:28:29;;;;;;;12.25;5.90;;;;;;;19.69;39.32;99794.75;4834725;29;20042;-92
2021/08/25 09:31:01;;;;;;;11.25;6.13;;;;;;;19.43;39.08;99778.69;4847443;29;20095;-94
2021/08/25 09:33:41;;;;;;;19.42;6.70;;;;;;;19.22;38.88;99751.28;4852422;29;20076;-90
2021/08/25 09:36:16;;;;;;;13.00;6.60;;;;;;;19.29;40.61;99786.66;4852340;29;20057;-91
2021/08/25 09:38:56;;;;;;;11.18;6.00;;;;;;;19.42;41.88;99757.66;4851525;29;20042;-93
2021/08/25 09:41:24;;;;;;;15.80;6.00;;;;;;;19.51;41.58;99766.59;4847570;29;20054;-91
2021/08/25 09:43:51;;;;;;;19.00;6.53;;;;;;;19.69;40.35;99772.56;4817532;29;20184;-96
2021/08/25 09:46:20;;;;;;;21.98;7.72;;;;;;;19.56;41.29;99759.94;4846746;29;20041;-83
2021/08/25 09:48:49;;;;;;;19.88;7.45;;;;;;;19.69;41.33;99784.44;4842765;29;20069;-82
2021/08/25 09:51:19;;;;;;;13.70;6.90;;;;;;;19.68;41.08;99784.81;4842711;29;20094;-86
2021/08/25 09:53:47;;;;;;;17.02;7.53;;;;;;;19.64;40.52;99775.63;4844151;29;20551;-82
2021/08/25 09:56:25;;;;;;;17.67;7.18;;;;;;;19.64;40.74;99761.75;4843174;29;20069;-83
2021/08/25 09:58:53;;;;;;;27.83;6.65;;;;;;;19.70;41.04;99761.13;4842174;29;20045;-83
2021/08/25 10:01:19;;;;;;;40.72;7.50;;;;;;;19.76;41.45;99775.47;4841858;29;20507;-84
2021/08/25 10:03:48;;;;;;;23.33;7.53;;;;;;;19.80;41.21;99770.00;4842377;29;20045;-82
2021/08/25 10:06:19;;;;;;;23.55;7.57;;;;;;;19.80;42.23;99762.50;4862488;29;20053;-83
2021/08/25 10:08:46;;;;;;;18.90;7.35;;;;;;;19.90;42.42;99766.66;4862606;29;20074;-85
2021/08/25 10:11:14;;;;;;;14.15;6.93;;;;;;;19.89;41.79;99767.81;4862145;29;20042;-93
2021/08/25 10:13:43;;;;;;;23.05;6.60;;;;;;;19.92;42.76;99764.31;4860880;29;20476;-82
2021/08/25 10:16:33;;;;;;;13.57;6.50;;;;;;;19.99;41.92;99772.00;4861864;29;20045;-86
2021/08/25 10:19:39;;;;;;;20.70;6.95;;;;;;;20.08;42.11;99761.47;4861461;29;20132;-85
2021/08/25 10:22:15;;;;;;;45.78;7.55;;;;;;;20.09;42.24;99758.31;4861923;29;20041;-84
2021/08/25 10:24:53;;;;;;;28.27;7.97;;;;;;;20.08;43.17;99753.94;4862566;29;20049;-88
2021/08/25 10:27:20;;;;;;;28.77;8.65;;;;;;;19.75;41.62;99728.69;4860346;29;20038;-83
2021/08/25 10:30:01;;;;;;;16.75;6.65;;;;;;;20.26;43.87;99756.25;4860967;29;20046;-86
2021/08/25 10:32:38;;;;;;;14.05;6.13;;;;;;;20.76;42.32;99741.34;4860570;29;20064;-84
2021/08/25 10:35:26;;;;;;;13.15;6.30;;;;;;;20.59;40.68;99730.72;4861491;29;20638;-89
2021/08/25 10:38:15;;;;;;;14.57;6.60;;;;;;;20.31;42.00;99726.22;4875418;29;20512;-88
2021/08/25 10:40:48;;;;;;;11.15;5.90;;;;;;;20.56;41.36;99751.72;4850682;29;20106;-84
2021/08/25 10:43:39;;;;;;;12.77;5.97;;;;;;;20.48;42.69;99735.25;4842193;29;20465;-84
2021/08/25 10:46:09;;;;;;;17.08;6.88;;;;;;;20.54;42.04;99753.25;4843441;29;20542;-84
2021/08/25 10:48:44;;;;;;;24.75;7.35;;;;;;;20.46;42.22;99738.38;4842499;29;20050;-83
2021/08/25 10:51:32;;;;;;;13.07;6.13;;;;;;;20.62;42.22;99744.66;4842941;29;20049;-85
2021/08/25 10:54:00;;;;;;;14.05;6.55;;;;;;;20.57;42.20;99749.75;4842584;29;20046;-91
2021/08/25 10:56:30;;;;;;;15.70;6.45;;;;;;;20.67;43.35;99751.91;4842435;29;20053;-82
2021/08/25 10:59:06;;;;;;;15.52;6.70;;;;;;;20.82;42.04;99748.19;4842584;29;20508;-83
2021/08/25 11:01:37;;;;;;;11.23;6.38;;;;;;;20.79;41.77;99745.34;4842926;29;20178;-83
2021/08/25 11:04:06;;;;;;;18.98;7.00;;;;;;;20.75;40.66;99756.41;4842837;29;20469;-85
2021/08/25 11:06:46;;;;;;;20.80;6.80;;;;;;;20.69;41.71;99748.75;4842720;29;20128;-84
2021/08/25 11:09:20;;;;;;;16.00;6.32;;;;;;;20.68;43.21;99745.16;4843035;29;20038;-81
2021/08/25 11:11:46;;;;;;;13.75;6.93;;;;;;;20.64;42.57;99749.88;4843342;29;20054;-80
2021/08/25 11:14:29;;;;;;;37.90;7.53;;;;;;;20.58;41.26;99751.34;4857709;29;20129;-84
2021/08/25 11:17:19;;;;;;;23.30;6.35;;;;;;;20.61;43.28;99742.28;4843678;29;20049;-88
2021/08/25 11:19:50;;;;;;;24.35;6.93;;;;;;;20.81;41.76;99754.13;4843891;29;20037;-89
2021/08/25 11:22:19;;;;;;;15.88;6.28;;;;;;;20.80;41.93;99752.53;4843151;29;20042;-91
2021/08/25 11:24:48;;;;;;;13.35;6.20;;;;;;;20.79;41.50;99751.69;4826538;29;20133;-92
2021/08/25 11:27:19;;;;;;;12.80;5.93;;;;;;;20.94;41.91;99749.19;4826524;29;20046;-89
2021/08/25 11:29:58;;;;;;;18.27;7.78;;;;;;;20.85;41.85;99722.44;4843048;29;20038;-92
2021/08/25 11:32:24;;;;;;;20.38;6.68;;;;;;;21.02;41.20;99737.78;4842204;29;20053;-92
2021/08/25 11:34:51;;;;;;;14.80;6.90;;;;;;;20.98;42.36;99723.03;4855864;29;20108;-91